createdAt,value
2019-02-09T00:00:29.553Z,99806.40
2019-02-09T00:02:05.191Z,99810.08
2019-02-09T00:03:40.260Z,99811.98
2019-02-09T00:05:15.989Z,99816.76
2019-02-09T00:06:51.290Z,99810.55
2019-02-09T00:08:26.259Z,99807.50
2019-02-09T00:10:01.314Z,99804.66
2019-02-09T00:11:36.379Z,99791.42
2019-02-09T00:13:11.267Z,99792.02
2019-02-09T00:14:46.360Z,99782.59
2019-02-09T00:16:21.168Z,99774.66
2019-02-09T00:17:56.308Z,99775.84
2019-02-09T00:19:31.401Z,99769.14
2019-02-09T00:21:06.994Z,99759.91
2019-02-09T00:22:42.207Z,99754.28
2019-02-09T00:24:17.030Z,99740.89
2019-02-09T00:25:51.882Z,99739.22
2019-02-09T00:27:26.961Z,99733.25
2019-02-09T00:29:02.067Z,99745.73
2019-02-09T00:30:36.854Z,99730.21
2019-02-09T00:32:12.106Z,99730.80
2019-02-09T00:33:46.908Z,99727.09
2019-02-09T00:35:22.527Z,99728.61
2019-02-09T00:36:57.788Z,99740.25
2019-02-09T00:38:33.084Z,99743.20
2019-02-09T00:40:08.647Z,99738.22
2019-02-09T00:41:43.766Z,99742.34
2019-02-09T00:43:18.829Z,99742.72
2019-02-09T00:44:53.615Z,99736.48
2019-02-09T00:46:28.657Z,99728.59
2019-02-09T00:48:03.471Z,99732.70
2019-02-09T00:49:38.526Z,99729.91
2019-02-09T00:51:13.309Z,99723.48
2019-02-09T00:52:48.279Z,99721.69
2019-02-09T00:54:23.145Z,99717.19
2019-02-09T00:55:57.934Z,99722.33
2019-02-09T00:57:33.006Z,99718.45
2019-02-09T00:59:08.123Z,99714.30
2019-02-09T01:00:43.628Z,99712.95
2019-02-09T01:02:18.508Z,99715.39
2019-02-09T01:03:53.475Z,99727.24
2019-02-09T01:05:32.787Z,99718.34
2019-02-09T01:07:07.882Z,99721.23
2019-02-09T01:08:42.759Z,99726.12
2019-02-09T01:10:18.019Z,99729.23
2019-02-09T01:11:52.827Z,99728.56
2019-02-09T01:13:27.628Z,99725.51
2019-02-09T01:15:02.702Z,99723.64
2019-02-09T01:16:37.635Z,99720.20
2019-02-09T01:18:12.542Z,99725.25
2019-02-09T01:19:47.578Z,99729.07
2019-02-09T01:21:22.375Z,99732.25
2019-02-09T01:22:58.280Z,99735.73
2019-02-09T01:24:33.352Z,99734.23
2019-02-09T01:26:08.149Z,99738.34
2019-02-09T01:27:43.255Z,99739.75
2019-02-09T01:29:18.343Z,99732.77
2019-02-09T01:30:53.205Z,99747.06
2019-02-09T01:32:28.131Z,99746.64
2019-02-09T01:34:03.014Z,99750.34
2019-02-09T01:35:38.067Z,99745.44
2019-02-09T01:37:12.873Z,99745.95
2019-02-09T01:38:47.929Z,99724.19
2019-02-09T01:40:25.685Z,99726.41
2019-02-09T01:42:00.458Z,99724.97
2019-02-09T01:43:35.489Z,99717.78
2019-02-09T01:45:15.347Z,99713.36
2019-02-09T01:46:50.178Z,99708.47
2019-02-09T01:48:25.000Z,99714.24
2019-02-09T01:50:00.191Z,99710.28
2019-02-09T01:51:35.255Z,99699.50
2019-02-09T01:53:10.055Z,99697.45
2019-02-09T01:54:44.877Z,99689.84
2019-02-09T01:56:19.675Z,99695.30
2019-02-09T01:57:54.565Z,99690.03
2019-02-09T01:59:29.344Z,99686.50
2019-02-09T02:01:05.361Z,99680.98
2019-02-09T02:02:40.182Z,99686.38
2019-02-09T02:04:15.026Z,99683.39
2019-02-09T02:05:49.887Z,99683.74
2019-02-09T02:07:24.677Z,99689.27
2019-02-09T02:08:59.605Z,99692.45
2019-02-09T02:10:39.189Z,99677.67
2019-02-09T02:12:14.088Z,99680.30
2019-02-09T02:13:48.918Z,99669.66
2019-02-09T02:15:23.974Z,99671.32
2019-02-09T02:16:58.762Z,99657.09
2019-02-09T02:18:33.815Z,99660.00
2019-02-09T02:20:13.548Z,99662.67
2019-02-09T02:21:48.433Z,99655.75
2019-02-09T02:23:23.514Z,99663.22
2019-02-09T02:24:58.370Z,99658.09
2019-02-09T02:26:33.442Z,99661.14
2019-02-09T02:28:08.636Z,99644.23
2019-02-09T02:29:43.698Z,99644.70
2019-02-09T02:31:18.479Z,99640.67
2019-02-09T02:32:53.525Z,99647.62
2019-02-09T02:34:28.573Z,99637.75
2019-02-09T02:36:03.444Z,99631.16
2019-02-09T02:37:38.496Z,99626.44
2019-02-09T02:39:13.311Z,99608.22
2019-02-09T02:40:48.104Z,99597.11
2019-02-09T02:42:23.490Z,99591.84
2019-02-09T02:43:58.315Z,99590.28
2019-02-09T02:45:33.099Z,99581.34
2019-02-09T02:47:07.951Z,99578.98
2019-02-09T02:48:42.756Z,99569.52
2019-02-09T02:50:19.436Z,99582.58
2019-02-09T02:51:54.225Z,99578.64
2019-02-09T02:53:29.292Z,99578.25
2019-02-09T02:55:04.988Z,99563.64
2019-02-09T02:56:39.883Z,99569.84
2019-02-09T02:58:14.759Z,99571.14
2019-02-09T02:59:49.924Z,99569.14
2019-02-09T03:01:25.045Z,99572.49
2019-02-09T03:02:59.925Z,99571.48
2019-02-09T03:04:35.076Z,99585.68
2019-02-09T03:06:10.125Z,99587.73
2019-02-09T03:07:44.982Z,99578.50
2019-02-09T03:09:20.034Z,99568.44
2019-02-09T03:10:54.862Z,99566.98
2019-02-09T03:12:29.652Z,99563.70
2019-02-09T03:14:05.265Z,99555.17
2019-02-09T03:15:40.131Z,99555.61
2019-02-09T03:17:15.200Z,99558.91
2019-02-09T03:18:50.013Z,99557.31
2019-02-09T03:20:24.674Z,99553.87
2019-02-09T03:21:59.472Z,99558.87
2019-02-09T03:23:34.285Z,99553.56
2019-02-09T03:25:12.933Z,99563.70
2019-02-09T03:26:47.749Z,99552.00
2019-02-09T03:28:22.563Z,99564.75
2019-02-09T03:29:57.653Z,99554.64
2019-02-09T03:31:32.805Z,99555.42
2019-02-09T03:33:07.602Z,99553.31
2019-02-09T03:34:42.398Z,99563.20
2019-02-09T03:36:17.456Z,99568.41
2019-02-09T03:37:52.466Z,99573.18
2019-02-09T03:39:27.288Z,99563.94
2019-02-09T03:41:02.176Z,99572.81
2019-02-09T03:42:36.984Z,99568.84
2019-02-09T03:44:11.774Z,99569.58
2019-02-09T03:45:46.583Z,99584.45
2019-02-09T03:47:21.622Z,99597.71
2019-02-09T03:48:56.450Z,99593.91
2019-02-09T03:50:32.452Z,99584.51
2019-02-09T03:52:07.299Z,99580.47
2019-02-09T03:53:42.178Z,99587.09
2019-02-09T03:55:17.335Z,99586.64
2019-02-09T03:56:52.130Z,99590.67
2019-02-09T03:58:26.955Z,99589.80
2019-02-09T04:00:01.966Z,99589.57
2019-02-09T04:01:36.950Z,99589.55
2019-02-09T04:03:12.434Z,99586.91
2019-02-09T04:04:47.803Z,99588.63
2019-02-09T04:06:22.750Z,99579.54
2019-02-09T04:07:57.814Z,99584.58
2019-02-09T04:09:32.870Z,99593.08
2019-02-09T04:11:07.751Z,99593.98
2019-02-09T04:12:42.806Z,99595.63
2019-02-09T04:14:17.583Z,99585.40
2019-02-09T04:15:52.386Z,99585.50
2019-02-09T04:17:27.188Z,99582.17
2019-02-09T04:19:02.004Z,99581.76
2019-02-09T04:20:36.866Z,99580.51
2019-02-09T04:22:11.734Z,99569.56
2019-02-09T04:23:46.547Z,99573.59
2019-02-09T04:25:21.747Z,99577.00
2019-02-09T04:26:56.654Z,99565.72
2019-02-09T04:28:31.746Z,99568.61
2019-02-09T04:30:14.114Z,99570.84
2019-02-09T04:31:48.897Z,99567.23
2019-02-09T04:33:23.976Z,99561.56
2019-02-09T04:34:58.787Z,99564.52
2019-02-09T04:36:33.607Z,99560.39
2019-02-09T04:38:08.386Z,99553.53
2019-02-09T04:39:43.189Z,99548.26
2019-02-09T04:41:18.012Z,99542.47
2019-02-09T04:42:53.035Z,99531.73
2019-02-09T04:44:27.835Z,99528.75
2019-02-09T04:46:02.649Z,99530.30
2019-02-09T04:47:37.447Z,99532.06
2019-02-09T04:49:11.986Z,99520.78
2019-02-09T04:50:46.427Z,99522.34
2019-02-09T04:52:21.176Z,99523.23
2019-02-09T04:53:57.606Z,99522.02
2019-02-09T04:55:32.401Z,99522.70
2019-02-09T04:57:07.270Z,99518.53
2019-02-09T04:58:42.055Z,99514.64
2019-02-09T05:00:20.380Z,99511.34
2019-02-09T05:01:55.291Z,99512.64
2019-02-09T05:03:30.338Z,99507.47
2019-02-09T05:05:05.976Z,99511.48
2019-02-09T05:06:40.865Z,99508.79
2019-02-09T05:08:15.668Z,99504.49
2019-02-09T05:09:50.716Z,99499.91
2019-02-09T05:11:25.504Z,99504.94
2019-02-09T05:13:00.286Z,99499.14
2019-02-09T05:14:35.339Z,99484.48
2019-02-09T05:16:10.148Z,99487.38
2019-02-09T05:17:45.090Z,99478.08
2019-02-09T05:19:20.133Z,99485.09
2019-02-09T05:20:54.963Z,99487.18
2019-02-09T05:22:30.085Z,99496.31
2019-02-09T05:24:05.162Z,99482.79
2019-02-09T05:25:40.087Z,99478.08
2019-02-09T05:27:14.910Z,99478.20
2019-02-09T05:28:49.967Z,99469.32
2019-02-09T05:30:27.331Z,99469.41
2019-02-09T05:32:02.365Z,99468.84
2019-02-09T05:33:37.175Z,99461.89
2019-02-09T05:35:12.418Z,99459.20
2019-02-09T05:36:47.507Z,99456.86
2019-02-09T05:38:22.274Z,99459.67
2019-02-09T05:39:57.079Z,99461.86
2019-02-09T05:41:32.176Z,99458.53
2019-02-09T05:43:07.123Z,99457.69
2019-02-09T05:44:42.168Z,99461.73
2019-02-09T05:46:16.998Z,99462.38
2019-02-09T05:47:52.212Z,99463.94
2019-02-09T05:49:27.269Z,99461.80
2019-02-09T05:51:02.071Z,99465.26
2019-02-09T05:52:36.879Z,99461.67
2019-02-09T05:54:11.664Z,99462.53
2019-02-09T05:55:46.460Z,99461.13
2019-02-09T05:57:21.575Z,99458.55
2019-02-09T05:58:56.400Z,99456.53
2019-02-09T06:00:35.436Z,99458.40
2019-02-09T06:02:10.306Z,99459.81
2019-02-09T06:03:45.366Z,99456.92
2019-02-09T06:05:20.896Z,99453.23
2019-02-09T06:06:55.691Z,99455.09
2019-02-09T06:08:30.745Z,99468.20
2019-02-09T06:10:10.171Z,99463.49
2019-02-09T06:11:45.237Z,99470.73
2019-02-09T06:13:20.520Z,99466.25
2019-02-09T06:14:55.623Z,99464.97
2019-02-09T06:16:30.907Z,99469.27
2019-02-09T06:18:06.315Z,99470.87
2019-02-09T06:19:41.362Z,99469.62
2019-02-09T06:21:16.431Z,99466.41
2019-02-09T06:22:51.219Z,99476.31
2019-02-09T06:24:26.109Z,99476.89
2019-02-09T06:26:03.602Z,99479.78
2019-02-09T06:27:37.746Z,99480.48
2019-02-09T06:29:12.835Z,99472.57
2019-02-09T06:30:47.766Z,99473.47
2019-02-09T06:32:22.556Z,99467.15
2019-02-09T06:34:00.540Z,99458.98
2019-02-09T06:35:35.746Z,99469.81
2019-02-09T06:37:10.690Z,99462.34
2019-02-09T06:38:45.745Z,99456.83
2019-02-09T06:40:20.995Z,99459.52
2019-02-09T06:41:56.071Z,99454.36
2019-02-09T06:43:30.872Z,99450.35
2019-02-09T06:45:08.119Z,99470.23
2019-02-09T06:46:42.904Z,99471.83
2019-02-09T06:48:27.458Z,99479.36
2019-02-09T06:50:02.257Z,99479.81
2019-02-09T06:51:37.104Z,99475.06
2019-02-09T06:53:12.193Z,99483.53
2019-02-09T06:54:46.997Z,99483.63
2019-02-09T06:56:22.025Z,99492.63
2019-02-09T06:57:56.951Z,99483.97
2019-02-09T06:59:31.742Z,99484.28
2019-02-09T07:01:06.697Z,99490.37
2019-02-09T07:02:41.557Z,99482.17
2019-02-09T07:04:16.382Z,99481.86
2019-02-09T07:05:51.179Z,99485.80
2019-02-09T07:07:25.983Z,99483.27
2019-02-09T07:09:00.805Z,99483.41
2019-02-09T07:10:35.611Z,99480.45
2019-02-09T07:12:10.405Z,99482.12
2019-02-09T07:13:45.195Z,99484.17
2019-02-09T07:15:24.934Z,99487.19
2019-02-09T07:16:59.721Z,99494.42
2019-02-09T07:18:34.593Z,99481.60
2019-02-09T07:20:10.820Z,99482.41
2019-02-09T07:21:45.883Z,99492.95
2019-02-09T07:23:20.661Z,99503.56
2019-02-09T07:24:55.686Z,99508.15
2019-02-09T07:26:30.751Z,99508.70
2019-02-09T07:28:07.076Z,99501.67
2019-02-09T07:29:42.042Z,99491.31
2019-02-09T07:31:17.106Z,99490.45
2019-02-09T07:32:53.041Z,99497.97
2019-02-09T07:34:27.935Z,99504.10
2019-02-09T07:36:02.993Z,99505.87
2019-02-09T07:37:38.075Z,99496.02
2019-02-09T07:39:12.949Z,99481.88
2019-02-09T07:40:48.091Z,99478.31
2019-02-09T07:42:23.249Z,99480.39
2019-02-09T07:43:58.298Z,99481.38
2019-02-09T07:45:33.699Z,99490.48
2019-02-09T07:47:08.573Z,99495.28
2019-02-09T07:48:43.661Z,99502.66
2019-02-09T07:50:19.677Z,99496.66
2019-02-09T07:51:54.984Z,99497.14
2019-02-09T07:53:30.069Z,99493.81
2019-02-09T07:55:06.843Z,99493.97
2019-02-09T07:56:41.669Z,99481.27
2019-02-09T07:58:16.721Z,99488.58
2019-02-09T07:59:51.791Z,99486.59
2019-02-09T08:01:26.929Z,99494.88
2019-02-09T08:03:02.288Z,99489.83
2019-02-09T08:04:37.376Z,99494.31
2019-02-09T08:06:12.325Z,99499.41
2019-02-09T08:07:47.273Z,99504.31
2019-02-09T08:09:22.066Z,99497.86
2019-02-09T08:10:57.197Z,99499.09
2019-02-09T08:12:32.260Z,99497.89
2019-02-09T08:14:07.437Z,99499.45
2019-02-09T08:15:42.403Z,99496.81
2019-02-09T08:17:17.504Z,99502.83
2019-02-09T08:18:52.307Z,99503.53
2019-02-09T08:20:28.697Z,99508.69
2019-02-09T08:22:03.633Z,99518.25
2019-02-09T08:23:38.698Z,99521.47
2019-02-09T08:25:17.243Z,99522.09
2019-02-09T08:26:52.074Z,99513.31
2019-02-09T08:28:27.018Z,99514.20
2019-02-09T08:30:02.066Z,99517.66
2019-02-09T08:31:36.873Z,99514.33
2019-02-09T08:33:12.516Z,99508.96
2019-02-09T08:34:47.351Z,99506.44
2019-02-09T08:36:22.230Z,99514.41
2019-02-09T08:37:57.775Z,99512.14
2019-02-09T08:39:32.610Z,99520.35
2019-02-09T08:41:07.402Z,99527.51
2019-02-09T08:42:42.342Z,99524.78
2019-02-09T08:44:17.124Z,99521.45
2019-02-09T08:45:52.016Z,99537.84
2019-02-09T08:47:27.009Z,99540.89
2019-02-09T08:49:01.794Z,99540.45
2019-02-09T08:50:44.754Z,99531.25
2019-02-09T08:52:19.653Z,99541.20
2019-02-09T08:53:54.465Z,99540.83
2019-02-09T08:55:29.422Z,99549.53
2019-02-09T08:57:04.306Z,99542.91
2019-02-09T08:58:39.134Z,99545.05
2019-02-09T09:00:18.162Z,99537.07
2019-02-09T09:01:52.994Z,99534.86
2019-02-09T09:03:27.863Z,99536.73
2019-02-09T09:05:09.564Z,99530.66
2019-02-09T09:06:39.455Z,99515.92
2019-02-09T09:08:14.524Z,99514.52
2019-02-09T09:09:48.970Z,99514.48
2019-02-09T09:11:23.797Z,99512.46
2019-02-09T09:12:59.399Z,99514.81
2019-02-09T09:14:34.728Z,99514.27
2019-02-09T09:16:12.942Z,99511.22
2019-02-09T09:17:47.750Z,99506.27
2019-02-09T09:19:23.043Z,99500.05
2019-02-09T09:21:01.934Z,99500.87
2019-02-09T09:22:36.994Z,99489.23
2019-02-09T09:24:12.032Z,99499.24
2019-02-09T09:25:47.315Z,99505.06
2019-02-09T09:27:22.461Z,99504.37
2019-02-09T09:28:57.866Z,99511.83
2019-02-09T09:30:32.998Z,99506.59
2019-02-09T09:32:07.951Z,99512.53
2019-02-09T09:33:42.752Z,99517.50
2019-02-09T09:35:18.129Z,99515.11
2019-02-09T09:36:52.950Z,99512.79
2019-02-09T09:38:28.023Z,99521.09
2019-02-09T09:40:03.829Z,99518.09
2019-02-09T09:41:38.721Z,99521.13
2019-02-09T09:43:13.850Z,99515.81
2019-02-09T09:44:48.647Z,99525.96
2019-02-09T09:46:23.728Z,99520.36
2019-02-09T09:47:58.930Z,99510.30
2019-02-09T09:49:33.795Z,99506.91
2019-02-09T09:51:09.243Z,99502.51
2019-02-09T09:52:44.323Z,99512.59
2019-02-09T09:54:19.383Z,99505.80
2019-02-09T09:55:54.250Z,99516.84
2019-02-09T09:57:29.063Z,99522.28
2019-02-09T09:59:04.485Z,99522.58
2019-02-09T10:00:39.528Z,99519.58
2019-02-09T10:02:14.325Z,99516.93
2019-02-09T10:03:49.121Z,99520.20
2019-02-09T10:05:24.216Z,99529.87
2019-02-09T10:06:59.274Z,99526.63
2019-02-09T10:08:34.305Z,99525.23
2019-02-09T10:10:12.520Z,99524.99
2019-02-09T10:11:47.672Z,99527.13
2019-02-09T10:13:22.479Z,99539.50
2019-02-09T10:14:57.541Z,99524.33
2019-02-09T10:16:32.371Z,99538.11
2019-02-09T10:18:07.584Z,99543.48
2019-02-09T10:19:42.381Z,99534.01
2019-02-09T10:21:17.192Z,99544.36
2019-02-09T10:22:52.621Z,99546.66
2019-02-09T10:24:27.900Z,99549.27
2019-02-09T10:26:02.988Z,99548.86
2019-02-09T10:27:37.781Z,99542.74
2019-02-09T10:29:12.579Z,99548.48
2019-02-09T10:30:47.453Z,99546.11
2019-02-09T10:32:22.259Z,99549.16
2019-02-09T10:33:57.348Z,99559.92
2019-02-09T10:35:32.484Z,99550.87
2019-02-09T10:37:07.295Z,99550.94
2019-02-09T10:38:42.127Z,99553.61
2019-02-09T10:40:23.427Z,99550.83
2019-02-09T10:41:58.464Z,99550.69
2019-02-09T10:43:33.636Z,99546.64
2019-02-09T10:45:10.407Z,99563.67
2019-02-09T10:46:46.315Z,99570.91
2019-02-09T10:48:21.179Z,99572.41
2019-02-09T10:49:56.228Z,99562.98
2019-02-09T10:51:31.550Z,99578.91
2019-02-09T10:53:06.899Z,99575.68
2019-02-09T10:54:41.946Z,99586.06
2019-02-09T10:56:16.805Z,99592.19
2019-02-09T10:57:51.941Z,99585.66
2019-02-09T10:59:26.999Z,99584.89
2019-02-09T11:01:15.495Z,99583.49
2019-02-09T11:03:02.329Z,99591.03
2019-02-09T11:04:40.426Z,99584.53
2019-02-09T11:06:19.383Z,99590.73
2019-02-09T11:08:34.547Z,99598.22
2019-02-09T11:11:53.406Z,99590.19
2019-02-09T11:14:21.232Z,99599.42
2019-02-09T11:23:05.094Z,99620.66
2019-02-09T11:25:36.367Z,99600.79
2019-02-09T11:27:11.720Z,99615.09
2019-02-09T11:28:46.842Z,99619.04
2019-02-09T11:30:23.878Z,99611.73
2019-02-09T11:31:59.001Z,99626.44
2019-02-09T11:33:56.512Z,99615.94
2019-02-09T11:35:42.007Z,99620.37
2019-02-09T11:38:10.409Z,99600.28
2019-02-09T11:40:27.590Z,99615.55
2019-02-09T11:45:12.921Z,99620.23
2019-02-09T11:47:47.492Z,99606.47
2019-02-09T11:49:55.843Z,99608.11
2019-02-09T11:51:55.506Z,99599.77
2019-02-09T11:54:13.177Z,99608.72
2019-02-09T11:59:57.623Z,99611.90
2019-02-09T12:01:36.013Z,99614.80
2019-02-09T12:04:11.518Z,99609.83
2019-02-09T12:12:22.989Z,99614.24
2019-02-09T12:13:57.835Z,99612.06
2019-02-09T12:15:34.221Z,99615.52
2019-02-09T12:17:09.291Z,99611.52
2019-02-09T12:18:44.111Z,99614.11
2019-02-09T12:20:19.656Z,99617.49
2019-02-09T12:21:54.486Z,99623.09
2019-02-09T12:23:29.379Z,99617.45
2019-02-09T12:25:05.994Z,99629.63
2019-02-09T12:26:41.046Z,99618.64
2019-02-09T12:28:16.206Z,99619.12
2019-02-09T12:29:51.512Z,99615.08
2019-02-09T12:31:27.466Z,99624.41
2019-02-09T12:33:03.061Z,99624.91
2019-02-09T12:34:38.008Z,99620.61
2019-02-09T12:36:12.906Z,99621.25
2019-02-09T12:37:48.022Z,99624.66
2019-02-09T12:39:22.812Z,99626.87
2019-02-09T12:40:57.633Z,99629.60
2019-02-09T12:42:32.439Z,99622.41
2019-02-09T12:44:07.754Z,99613.92
2019-02-09T12:45:42.778Z,99609.64
2019-02-09T12:47:17.721Z,99606.23
2019-02-09T12:48:52.844Z,99600.31
2019-02-09T12:50:28.859Z,99601.38
2019-02-09T12:52:03.723Z,99613.19
2019-02-09T12:53:38.523Z,99609.21
2019-02-09T12:55:14.274Z,99607.76
2019-02-09T12:56:49.415Z,99614.95
2019-02-09T12:58:24.242Z,99604.64
2019-02-09T12:59:59.290Z,99627.65
2019-02-09T13:01:34.118Z,99620.39
2019-02-09T13:03:30.689Z,99619.69
2019-02-09T13:04:59.411Z,99626.42
2019-02-09T13:06:34.936Z,99628.13
2019-02-09T13:08:09.915Z,99626.97
2019-02-09T13:09:44.806Z,99615.38
2019-02-09T13:11:19.878Z,99629.80
2019-02-09T13:12:54.837Z,99631.23
2019-02-09T13:14:29.974Z,99624.49
2019-02-09T13:16:05.579Z,99627.41
2019-02-09T13:17:40.441Z,99632.69
2019-02-09T13:19:15.252Z,99633.84
2019-02-09T13:20:50.126Z,99642.58
2019-02-09T13:22:25.163Z,99628.07
2019-02-09T13:23:59.983Z,99637.03
2019-02-09T13:25:35.113Z,99629.38
2019-02-09T13:27:09.901Z,99631.42
2019-02-09T13:28:44.968Z,99646.75
2019-02-09T13:30:29.990Z,99643.18
2019-02-09T13:32:04.947Z,99634.48
2019-02-09T13:33:39.761Z,99637.38
2019-02-09T13:35:15.300Z,99630.91
2019-02-09T13:36:50.468Z,99640.44
2019-02-09T13:38:25.345Z,99638.88
2019-02-09T13:40:00.385Z,99647.98
2019-02-09T13:41:35.461Z,99642.70
2019-02-09T13:43:10.335Z,99651.13
2019-02-09T13:44:45.229Z,99654.47
2019-02-09T13:46:20.265Z,99646.62
2019-02-09T13:47:55.418Z,99656.73
2019-02-09T13:49:30.522Z,99648.43
2019-02-09T13:51:05.693Z,99653.66
2019-02-09T13:52:40.836Z,99647.61
2019-02-09T13:54:15.738Z,99652.94
2019-02-09T13:55:50.535Z,99660.15
2019-02-09T13:57:25.598Z,99661.22
2019-02-09T13:59:00.421Z,99656.03
2019-02-09T14:00:36.099Z,99649.09
2019-02-09T14:02:10.908Z,99656.95
2019-02-09T14:03:46.870Z,99661.17
2019-02-09T14:05:22.303Z,99655.40
2019-02-09T14:06:57.107Z,99662.27
2019-02-09T14:08:31.897Z,99670.12
2019-02-09T14:10:07.978Z,99659.72
2019-02-09T14:11:42.768Z,99658.48
2019-02-09T14:13:17.819Z,99665.52
2019-02-09T14:14:52.940Z,99658.52
2019-02-09T14:16:27.727Z,99664.09
2019-02-09T14:18:05.895Z,99661.16
2019-02-09T14:19:41.194Z,99662.55
2019-02-09T14:21:16.010Z,99665.62
2019-02-09T14:22:51.390Z,99662.14
2019-02-09T14:24:26.185Z,99662.52
2019-02-09T14:26:00.977Z,99651.86
2019-02-09T14:27:35.847Z,99649.09
2019-02-09T14:29:10.979Z,99653.02
2019-02-09T14:30:46.039Z,99654.09
2019-02-09T14:32:20.836Z,99669.64
2019-02-09T14:33:57.625Z,99655.50
2019-02-09T14:35:32.499Z,99668.77
2019-02-09T14:37:07.363Z,99678.25
2019-02-09T14:38:42.159Z,99674.02
2019-02-09T14:40:20.682Z,99676.58
2019-02-09T14:41:55.580Z,99676.34
2019-02-09T14:43:30.660Z,99684.64
2019-02-09T14:45:09.329Z,99683.25
2019-02-09T14:46:44.214Z,99682.58
2019-02-09T14:48:19.012Z,99685.06
2019-02-09T14:49:54.083Z,99697.34
2019-02-09T14:51:28.877Z,99689.03
2019-02-09T14:53:03.809Z,99693.53
2019-02-09T14:54:38.606Z,99692.67
2019-02-09T14:56:13.668Z,99697.63
2019-02-09T14:57:49.029Z,99692.76
2019-02-09T14:59:23.858Z,99699.09
2019-02-09T15:00:58.979Z,99693.93
2019-02-09T15:02:33.774Z,99697.36
2019-02-09T15:04:08.637Z,99693.96
2019-02-09T15:05:43.877Z,99688.80
2019-02-09T15:07:18.660Z,99695.70
2019-02-09T15:08:53.473Z,99687.34
2019-02-09T15:10:28.291Z,99687.13
2019-02-09T15:12:03.338Z,99691.76
2019-02-09T15:13:38.388Z,99690.03
2019-02-09T15:15:25.022Z,99687.06
2019-02-09T15:17:05.613Z,99684.76
2019-02-09T15:18:38.090Z,99684.16
2019-02-09T15:20:17.624Z,99690.72
2019-02-09T15:21:52.418Z,99690.11
2019-02-09T15:23:27.297Z,99692.33
2019-02-09T15:25:02.106Z,99684.81
2019-02-09T15:26:37.234Z,99682.65
2019-02-09T15:28:12.630Z,99689.58
2019-02-09T15:29:47.930Z,99691.44
2019-02-09T15:31:22.739Z,99685.61
2019-02-09T15:32:57.886Z,99687.23
2019-02-09T15:34:32.701Z,99684.94
2019-02-09T15:36:07.550Z,99696.08
2019-02-09T15:37:42.331Z,99710.80
2019-02-09T15:39:17.374Z,99708.38
2019-02-09T15:40:52.530Z,99719.47
2019-02-09T15:42:27.581Z,99711.81
2019-02-09T15:44:02.638Z,99713.51
2019-02-09T15:45:37.567Z,99721.83
2019-02-09T15:47:12.378Z,99720.41
2019-02-09T15:48:47.176Z,99720.78
2019-02-09T15:50:22.255Z,99728.58
2019-02-09T15:51:57.043Z,99731.53
2019-02-09T15:53:31.847Z,99726.16
2019-02-09T15:55:09.215Z,99736.16
2019-02-09T15:56:44.007Z,99725.39
2019-02-09T15:58:18.834Z,99734.77
2019-02-09T15:59:53.892Z,99731.56
2019-02-09T16:01:28.677Z,99731.05
2019-02-09T16:03:03.605Z,99730.90
2019-02-09T16:04:38.412Z,99739.02
2019-02-09T16:06:13.206Z,99723.77
2019-02-09T16:07:48.074Z,99740.94
2019-02-09T16:09:22.866Z,99739.41
2019-02-09T16:10:57.677Z,99731.91
2019-02-09T16:12:32.469Z,99730.45
2019-02-09T16:14:07.541Z,99739.70
2019-02-09T16:15:42.588Z,99742.39
2019-02-09T16:17:17.661Z,99754.31
2019-02-09T16:18:52.750Z,99739.64
2019-02-09T16:20:27.557Z,99752.81
2019-02-09T16:22:02.347Z,99747.44
2019-02-09T16:23:37.164Z,99748.02
2019-02-09T16:25:12.670Z,99746.62
2019-02-09T16:26:47.761Z,99749.40
2019-02-09T16:28:22.853Z,99750.31
2019-02-09T16:29:58.123Z,99743.22
2019-02-09T16:31:33.182Z,99753.04
2019-02-09T16:33:08.245Z,99751.77
2019-02-09T16:34:43.037Z,99750.84
2019-02-09T16:36:17.850Z,99750.50
2019-02-09T16:37:53.287Z,99757.44
2019-02-09T16:39:28.171Z,99759.27
2019-02-09T16:41:03.232Z,99755.28
2019-02-09T16:42:38.029Z,99749.27
2019-02-09T16:44:12.827Z,99758.03
2019-02-09T16:45:47.653Z,99761.84
2019-02-09T16:47:22.455Z,99761.84
2019-02-09T16:48:57.248Z,99766.11
2019-02-09T16:50:32.136Z,99765.44
2019-02-09T16:52:07.038Z,99765.55
2019-02-09T16:53:42.099Z,99767.09
2019-02-09T16:55:17.176Z,99771.72
2019-02-09T16:56:52.010Z,99779.40
2019-02-09T16:58:27.074Z,99788.86
2019-02-09T17:00:02.205Z,99778.03
2019-02-09T17:01:37.013Z,99774.98
2019-02-09T17:03:13.309Z,99780.02
2019-02-09T17:04:48.453Z,99772.25
2019-02-09T17:06:23.478Z,99771.04
2019-02-09T17:07:58.429Z,99775.56
2019-02-09T17:09:33.226Z,99780.08
2019-02-09T17:11:08.194Z,99781.48
2019-02-09T17:12:42.995Z,99782.47
2019-02-09T17:14:17.877Z,99785.81
2019-02-09T17:15:52.722Z,99784.84
2019-02-09T17:17:27.532Z,99789.47
2019-02-09T17:19:02.632Z,99787.96
2019-02-09T17:20:37.661Z,99785.94
2019-02-09T17:22:12.463Z,99793.84
2019-02-09T17:23:47.516Z,99789.48
2019-02-09T17:25:22.900Z,99788.55
2019-02-09T17:26:57.724Z,99784.36
2019-02-09T17:28:32.793Z,99782.08
2019-02-09T17:30:13.795Z,99786.42
2019-02-09T17:31:48.879Z,99786.25
2019-02-09T17:33:23.784Z,99782.98
2019-02-09T17:34:58.574Z,99792.40
2019-02-09T17:36:33.645Z,99786.13
2019-02-09T17:38:08.687Z,99790.34
2019-02-09T17:39:43.732Z,99797.34
2019-02-09T17:41:18.596Z,99804.59
2019-02-09T17:42:53.692Z,99810.95
2019-02-09T17:44:28.464Z,99799.54
2019-02-09T17:46:13.964Z,99793.67
2019-02-09T17:47:49.271Z,99791.28
2019-02-09T17:49:24.207Z,99801.19
2019-02-09T17:50:59.035Z,99792.09
2019-02-09T17:52:34.079Z,99807.03
2019-02-09T17:54:09.068Z,99794.40
2019-02-09T17:55:44.155Z,99789.45
2019-02-09T17:57:19.247Z,99804.34
2019-02-09T17:58:54.637Z,99801.89
2019-02-09T18:00:40.539Z,99804.69
2019-02-09T18:02:15.627Z,99806.70
2019-02-09T18:03:50.450Z,99802.64
2019-02-09T18:05:25.510Z,99792.77
2019-02-09T18:07:00.654Z,99798.02
2019-02-09T18:08:35.737Z,99794.22
2019-02-09T18:10:13.748Z,99793.58
2019-02-09T18:11:49.030Z,99790.34
2019-02-09T18:13:24.084Z,99800.32
2019-02-09T18:14:59.470Z,99799.09
2019-02-09T18:16:34.443Z,99799.05
2019-02-09T18:18:09.453Z,99789.41
2019-02-09T18:19:44.274Z,99798.69
2019-02-09T18:21:19.100Z,99799.81
2019-02-09T18:22:53.896Z,99794.64
2019-02-09T18:24:29.119Z,99789.55
2019-02-09T18:26:03.938Z,99785.22
2019-02-09T18:27:39.087Z,99794.77
2019-02-09T18:29:14.262Z,99796.92
2019-02-09T18:30:49.155Z,99784.67
2019-02-09T18:32:24.032Z,99785.08
2019-02-09T18:33:58.815Z,99799.01
2019-02-09T18:35:33.699Z,99796.41
2019-02-09T18:37:08.503Z,99805.49
2019-02-09T18:38:43.557Z,99782.66
2019-02-09T18:40:21.024Z,99795.13
2019-02-09T18:41:55.918Z,99803.25
2019-02-09T18:43:30.895Z,99801.53
2019-02-09T18:45:06.952Z,99803.67
2019-02-09T18:46:41.766Z,99801.42
2019-02-09T18:48:17.104Z,99801.59
2019-02-09T18:49:51.931Z,99802.89
2019-02-09T18:51:26.741Z,99805.13
2019-02-09T18:53:01.723Z,99806.48
2019-02-09T18:54:36.506Z,99812.56
2019-02-09T18:56:11.412Z,99812.94
2019-02-09T18:57:46.474Z,99803.79
2019-02-09T18:59:21.302Z,99797.47
2019-02-09T19:00:56.484Z,99808.78
2019-02-09T19:02:38.232Z,99802.31
2019-02-09T19:04:08.207Z,99799.02
2019-02-09T19:05:43.436Z,99802.04
2019-02-09T19:07:18.979Z,99804.03
2019-02-09T19:08:53.826Z,99809.14
2019-02-09T19:10:29.246Z,99804.95